Terminal Aerodrome Forecast
Issued by NWS Blacksburg, VA

Home | Current Version | Previous Version | Text Only | Print | Product List | Glossary On
Versions: 1 2 3 4 5 6 7 8 9 10 11 12 13 14 15 16 17 18 19 20 21 22 23 24 25 26 27 28 29 30 31 32 33 34 35 36 37 38 39 40 41 42 43 44 45 46 47 48 49 50
000
FTUS41 KRNK 250810 AAB
TAFDAN
TAF AMD
KDAN 250810Z 2508/2606 26009KT P6SM -RA SCT003 OVC035
     FM251100 29009KT P6SM SCT005 OVC050
     FM251300 27012G25KT P6SM SCT050
     FM252000 30007KT P6SM SKC
     FM260000 27003KT P6SM SKC=

USA.gov is the U.S. government's official web portal to all federal, state and local government web resources and services.